JST655 YSCB-YMML

Flight info

Callsign JST655
Flight time 0h 44m
Altitude 32000
Route TANTA Q29 BOOIN
Aircraft A320/M-SDE3FGHIRWY/LB1

Departure

Time 2026-05-01 12:05
Airport Canberra Airport (YSCB)

Arrival

Time 2026-05-01 12:49
Airport Melbourne Airport (YMML)
Time Latitude Longitude Altitude Speed Heading
2026-05-01 11:47 -35.30717 149.19121 1877 ft 0 kts 245°
2026-05-01 11:58 -35.30708 149.19143 1877 ft 3 kts 243°
2026-05-01 11:58 -35.30690 149.19197 1880 ft 4 kts 227°
2026-05-01 11:59 -35.30682 149.19204 1875 ft 0 kts 181°
2026-05-01 12:02 -35.30683 149.19204 1880 ft 1 kts 181°
2026-05-01 12:02 -35.30701 149.19206 1880 ft 4 kts 166°
2026-05-01 12:03 -35.30724 149.19214 1880 ft 7 kts 165°
2026-05-01 12:03 -35.30790 149.19232 1880 ft 12 kts 170°
2026-05-01 12:03 -35.30915 149.19241 1878 ft 22 kts 179°
2026-05-01 12:03 -35.31076 149.19240 1880 ft 25 kts 181°
2026-05-01 12:04 -35.31239 149.19240 1880 ft 24 kts 180°
2026-05-01 12:04 -35.31397 149.19243 1880 ft 18 kts 170°
2026-05-01 12:04 -35.31467 149.19332 1880 ft 15 kts 100°
2026-05-01 12:04 -35.31467 149.19436 1880 ft 6 kts 71°
2026-05-01 12:05 -35.31423 149.19446 1879 ft 14 kts 358°
2026-05-01 12:05 -35.30193 149.19440 1882 ft 151 kts 359°
2026-05-01 12:05 -35.29120 149.19434 2493 ft 155 kts 358°
2026-05-01 12:06 -35.28037 149.19465 3271 ft 156 kts
2026-05-01 12:06 -35.26937 149.19603 3934 ft 166 kts
2026-05-01 12:06 -35.25712 149.19755 4364 ft 189 kts
2026-05-01 12:06 -35.24311 149.19787 4847 ft 218 kts 351°
2026-05-01 12:07 -35.22892 149.18832 5006 ft 260 kts 314°
2026-05-01 12:07 -35.22148 149.16722 5716 ft 282 kts 275°
2026-05-01 12:07 -35.22535 149.14378 6872 ft 288 kts 243°
2026-05-01 12:07 -35.23859 149.12529 7886 ft 293 kts 218°
2026-05-01 12:08 -35.25579 149.11162 8916 ft 297 kts 210°
2026-05-01 12:08 -35.27408 149.09933 9908 ft 302 kts 209°
2026-05-01 12:08 -35.29276 149.08636 10551 ft 320 kts 212°
2026-05-01 12:08 -35.31234 149.07133 10900 ft 344 kts 214°
2026-05-01 12:09 -35.33268 149.05415 11234 ft 365 kts 217°
2026-05-01 12:09 -35.35306 149.03566 11891 ft 373 kts 219°
2026-05-01 12:09 -35.37378 149.01607 12651 ft 379 kts 220°
2026-05-01 12:09 -35.39461 148.99602 13451 ft 383 kts 220°
2026-05-01 12:10 -35.41562 148.97570 14260 ft 387 kts 220°
2026-05-01 12:10 -35.45833 148.93467 15688 ft 393 kts 220°
2026-05-01 12:10 -35.48000 148.91405 16407 ft 396 kts 219°
2026-05-01 12:11 -35.52366 148.87276 17824 ft 402 kts 219°
2026-05-01 12:11 -35.54589 148.85170 18522 ft 406 kts 219°
2026-05-01 12:11 -35.56829 148.83039 19161 ft 409 kts 219°
2026-05-01 12:12 -35.59083 148.80891 19807 ft 412 kts 219°
2026-05-01 12:12 -35.61356 148.78728 20455 ft 415 kts 219°
2026-05-01 12:12 -35.63643 148.76551 21094 ft 417 kts 219°
2026-05-01 12:12 -35.65946 148.74354 21699 ft 421 kts 220°
2026-05-01 12:13 -35.68270 148.72139 22259 ft 424 kts 220°
2026-05-01 12:13 -35.70610 148.69909 22824 ft 427 kts 220°
2026-05-01 12:13 -35.72965 148.67661 23378 ft 430 kts 220°
2026-05-01 12:13 -35.75299 148.65424 23937 ft 433 kts 220°
2026-05-01 12:14 -35.77685 148.63136 24400 ft 435 kts 220°
2026-05-01 12:14 -35.80081 148.60840 24871 ft 437 kts 220°
2026-05-01 12:14 -35.82489 148.58531 25333 ft 439 kts 220°
2026-05-01 12:14 -35.84902 148.56214 25808 ft 441 kts 220°
2026-05-01 12:15 -35.87259 148.53795 26262 ft 441 kts 226°
2026-05-01 12:15 -35.89299 148.50973 26726 ft 441 kts 235°
2026-05-01 12:15 -35.91040 148.47917 27191 ft 442 kts 237°
2026-05-01 12:15 -35.92799 148.44787 27641 ft 445 kts 237°
2026-05-01 12:16 -35.94566 148.41642 28067 ft 447 kts 237°
2026-05-01 12:16 -35.96343 148.38483 28516 ft 449 kts 237°
2026-05-01 12:16 -35.98129 148.35309 28957 ft 451 kts 237°
2026-05-01 12:16 -35.99925 148.32114 29421 ft 453 kts 237°
2026-05-01 12:17 -36.01726 148.28907 29872 ft 455 kts 237°
2026-05-01 12:17 -36.03530 148.25686 30374 ft 456 kts 237°
2026-05-01 12:17 -36.05305 148.22518 30929 ft 453 kts 237°
2026-05-01 12:17 -36.07092 148.19327 31516 ft 450 kts 237°
2026-05-01 12:18 -36.08867 148.16151 32062 ft 449 kts 237°
2026-05-01 12:18 -36.10641 148.12972 32305 ft 448 kts 237°
2026-05-01 12:18 -36.14157 148.06676 32366 ft 443 kts 237°
2026-05-01 12:19 -36.17655 148.00419 32355 ft 442 kts 237°
2026-05-01 12:19 -36.21125 147.94196 32355 ft 442 kts 237°
2026-05-01 12:20 -36.24616 147.87918 32353 ft 444 kts 238°
2026-05-01 12:20 -36.28126 147.81605 32357 ft 445 kts 238°
2026-05-01 12:21 -36.31636 147.75291 32354 ft 445 kts 238°
2026-05-01 12:21 -36.35118 147.69012 32351 ft 445 kts 238°
2026-05-01 12:22 -36.38613 147.62669 32358 ft 445 kts 238°
2026-05-01 12:22 -36.42105 147.56312 32344 ft 446 kts 238°
2026-05-01 12:23 -36.45603 147.49933 32346 ft 447 kts 238°
2026-05-01 12:23 -36.49103 147.43548 32346 ft 447 kts 238°
2026-05-01 12:24 -36.52587 147.37192 32338 ft 448 kts 238°
2026-05-01 12:24 -36.56092 147.30785 32344 ft 449 kts 238°
2026-05-01 12:25 -36.61350 147.21134 32342 ft 450 kts 238°
2026-05-01 12:26 -36.64861 147.14679 32340 ft 450 kts 238°
2026-05-01 12:26 -36.70097 147.05019 32347 ft 451 kts 239°
2026-05-01 12:27 -36.75369 146.95273 32348 ft 452 kts 238°
2026-05-01 12:28 -36.80622 146.85543 32358 ft 453 kts 239°
2026-05-01 12:29 -36.85893 146.75737 32351 ft 454 kts 239°
2026-05-01 12:29 -36.91176 146.65886 32340 ft 455 kts 239°
2026-05-01 12:30 -36.96432 146.56056 32345 ft 456 kts 239°
2026-05-01 12:31 -36.99954 146.49457 32332 ft 456 kts 239°
2026-05-01 12:31 -37.03465 146.42848 32338 ft 456 kts 239°
2026-05-01 12:32 -37.06978 146.36227 32355 ft 456 kts 239°
2026-05-01 12:32 -37.12226 146.26332 32200 ft 458 kts 239°
2026-05-01 12:33 -37.13990 146.22996 31636 ft 459 kts 239°
2026-05-01 12:33 -37.15754 146.19656 31018 ft 460 kts 239°
2026-05-01 12:33 -37.17523 146.16300 30426 ft 463 kts 239°
2026-05-01 12:33 -37.19301 146.12925 29722 ft 466 kts 239°
2026-05-01 12:34 -37.21093 146.09526 28650 ft 468 kts 239°
2026-05-01 12:34 -37.22895 146.06104 27431 ft 472 kts 239°
2026-05-01 12:34 -37.24712 146.02651 26275 ft 475 kts 240°
2026-05-01 12:34 -37.26508 145.99232 25166 ft 476 kts 240°
2026-05-01 12:35 -37.28325 145.95768 24284 ft 472 kts 240°
2026-05-01 12:35 -37.30122 145.92340 23274 ft 468 kts 239°
2026-05-01 12:35 -37.31901 145.88952 22380 ft 461 kts 239°
2026-05-01 12:35 -37.33657 145.85611 21478 ft 455 kts 239°
2026-05-01 12:36 -37.35393 145.82310 20607 ft 450 kts 239°
2026-05-01 12:36 -37.37109 145.79037 19741 ft 445 kts 239°
2026-05-01 12:36 -37.38802 145.75800 18897 ft 441 kts 239°
2026-05-01 12:36 -37.40475 145.72599 18018 ft 436 kts 239°
2026-05-01 12:37 -37.42102 145.69484 17255 ft 428 kts 239°
2026-05-01 12:37 -37.43726 145.66378 16522 ft 422 kts 239°
2026-05-01 12:37 -37.45329 145.63315 15808 ft 417 kts 239°
2026-05-01 12:37 -37.46971 145.60329 15103 ft 413 kts 237°
2026-05-01 12:38 -37.48655 145.57415 14381 ft 410 kts 236°
2026-05-01 12:38 -37.50356 145.54552 13603 ft 407 kts 236°
2026-05-01 12:38 -37.52049 145.51722 12851 ft 403 kts 236°
2026-05-01 12:38 -37.53722 145.48913 12091 ft 399 kts 236°
2026-05-01 12:39 -37.55370 145.46112 11185 ft 399 kts 236°
2026-05-01 12:39 -37.56996 145.43316 10807 ft 397 kts 236°
2026-05-01 12:39 -37.58614 145.40511 10570 ft 403 kts 236°
2026-05-01 12:39 -37.60280 145.37615 10332 ft 402 kts 236°
2026-05-01 12:40 -37.61899 145.34803 10085 ft 401 kts 236°
2026-05-01 12:40 -37.63534 145.31961 9934 ft 400 kts 236°
2026-05-01 12:40 -37.65170 145.29118 9803 ft 400 kts 236°
2026-05-01 12:40 -37.66802 145.26282 9672 ft 399 kts 236°
2026-05-01 12:41 -37.68431 145.23455 9433 ft 397 kts 236°
2026-05-01 12:41 -37.70047 145.20654 8862 ft 393 kts 236°
2026-05-01 12:41 -37.71648 145.17877 8046 ft 386 kts 237°
2026-05-01 12:41 -37.73177 145.15230 7341 ft 361 kts 237°
2026-05-01 12:42 -37.74614 145.12735 6734 ft 340 kts 238°
2026-05-01 12:42 -37.75937 145.10435 6356 ft 317 kts 238°
2026-05-01 12:42 -37.77188 145.08261 6177 ft 297 kts 238°
2026-05-01 12:42 -37.78370 145.06198 5997 ft 281 kts 239°
2026-05-01 12:43 -37.79489 145.04238 5603 ft 271 kts 239°
2026-05-01 12:43 -37.80577 145.02326 5151 ft 265 kts 240°
2026-05-01 12:43 -37.81414 145.00322 4681 ft 253 kts 256°
2026-05-01 12:43 -37.81837 144.98207 4212 ft 247 kts 264°
2026-05-01 12:44 -37.82197 144.96078 3740 ft 246 kts 264°
2026-05-01 12:44 -37.82556 144.93985 3306 ft 240 kts 266°
2026-05-01 12:44 -37.83078 144.90134 2908 ft 212 kts 269°
2026-05-01 12:45 -37.82540 144.87083 2674 ft 164 kts 327°
2026-05-01 12:45 -37.81551 144.86526 2584 ft 153 kts 355°
2026-05-01 12:45 -37.80519 144.86334 2519 ft 145 kts 356°
2026-05-01 12:46 -37.79535 144.86147 2495 ft 143 kts 356°
2026-05-01 12:46 -37.78550 144.85963 2265 ft 143 kts 355°
2026-05-01 12:46 -37.77566 144.85776 2055 ft 143 kts 356°
2026-05-01 12:46 -37.76583 144.85594 1836 ft 140 kts 357°
2026-05-01 12:47 -37.75664 144.85420 1580 ft 131 kts 356°
2026-05-01 12:47 -37.74797 144.85246 1536 ft 124 kts 356°
2026-05-01 12:47 -37.73944 144.85084 1382 ft 125 kts 356°
2026-05-01 12:47 -37.73067 144.84944 1189 ft 126 kts 353°
2026-05-01 12:48 -37.72208 144.84773 1050 ft 124 kts 352°
2026-05-01 12:48 -37.71351 144.84605 929 ft 125 kts 352°
2026-05-01 12:48 -37.70491 144.84454 783 ft 124 kts 352°
2026-05-01 12:48 -37.69639 144.84295 579 ft 123 kts 352°
2026-05-01 12:49 -37.68791 144.84137 419 ft 123 kts 352°
2026-05-01 12:49 -37.67972 144.83988 355 ft 108 kts 352°
2026-05-01 12:49 -37.67458 144.83892 371 ft 57 kts 352°
2026-05-01 12:49 -37.67105 144.83833 383 ft 45 kts 356°
2026-05-01 12:50 -37.66907 144.83882 389 ft 12 kts 21°
2026-05-01 12:50 -37.66859 144.83906 391 ft 5 kts 21°
2026-05-01 12:50 -37.66854 144.83908 391 ft 2 kts 21°
2026-05-01 12:50 -37.66821 144.83924 392 ft 6 kts 21°
2026-05-01 12:51 -37.66790 144.83939 393 ft 5 kts 21°
2026-05-01 12:51 -37.66753 144.83963 391 ft 7 kts 36°
2026-05-01 12:51 -37.66727 144.84117 391 ft 14 kts 116°
2026-05-01 12:52 -37.66814 144.84199 391 ft 19 kts 170°
2026-05-01 12:52 -37.67145 144.84258 383 ft 28 kts 171°
2026-05-01 12:52 -37.67354 144.84297 379 ft 32 kts 171°
2026-05-01 12:53 -37.67764 144.84377 372 ft 23 kts 171°
2026-05-01 12:53 -37.67832 144.84455 364 ft 14 kts 92°
2026-05-01 12:53 -37.67795 144.84596 370 ft 18 kts 44°
2026-05-01 12:54 -37.67738 144.84693 371 ft 14 kts 83°
2026-05-01 12:54 -37.67701 144.84812 373 ft 5 kts
2026-05-01 12:54 -37.67662 144.84806 375 ft 6 kts 351°
2026-05-01 12:55 -37.67628 144.84799 376 ft 0 kts 352°
2026-05-01 12:55 -37.67627 144.84799 376 ft 0 kts 352°